Tailai, China
Current Conditions -  °F | °C
As of 5:00 PM on Thursday 27 Nov 2014 (Local Time) from ZYHB Reporting Station
Clear Clear  
Wind Chill: 11°   Ceiling: Unl
Heat Index: 19°   Visibility: 6mi
Dew Point: -2°   Wind: 7mph
Humidity: 39%   Direction: 220°SW
Pressure: 30.33"   Gusts: NA
Location:  46.39°N, 123.41°E
Report Text: ZYHB 270900Z 22003MPS CAVOK M07/M19 Q1027 NOSIG
Loading
Personal Weather Stations






























Interactive Weather Map New forecast layout! Learn more

10-Day Weather Forecast

Advertisements
Track Severe Weather on mobile